Terminal Aerodrome Forecast
Issued by NWS Huntsville, AL

Home | Current Version | Previous Version | Text Only | Print | Product List | Glossary On
Versions: 1 2 3 4 5 6 7 8 9 10 11 12 13 14 15 16 17 18 19 20 21 22 23 24 25 26 27 28 29 30 31
000
FTUS44 KHUN 012348 CCA
TAFMSL
TAF COR
KMSL 012348Z 0200/0224 20012G20KT 6SM SHRA BR BKN015 OVC030
     FM020100 30012G20KT P6SM BKN025 OVC040
     FM020900 33010G18KT P6SM BKN025 OVC040
      TEMPO 0210/0214 -SHSN BKN015
     FM022000 35007KT P6SM SCT035 BKN050=

USA.gov is the U.S. government's official web portal to all federal, state and local government web resources and services.